Terminal Aerodrome Forecast
Issued by NWS

Home | Current Version | Previous Version | Text Only | Print | Product List | Glossary On
Versions: 1 2 3 4 5 6 7 8 9 10 11 12
000
FTUS43 KMQT 050531
TAFCMX
TAF
KCMX 050531Z 0506/0606 07006KT P6SM SCT200
     FM051000 17004KT P6SM SCT200
     FM051400 22010KT P6SM SCT200=

USA.gov is the U.S. government's official web portal to all federal, state and local government web resources and services.